Time;durP1;ratioP1;P1;durP2;ratioP2;P2;SDS_P1;SDS_P2;PMS_P1;PMS_P2;Temp;Humidity;BMP_temperature;BMP_pressure;BME280_temperature;BME280_humidity;BME280_pressure;Samples;Min_cycle;Max_cycle;Signal;HPM_P1;HPM_P2
2022/09/23 00:00:36;;;;;;;;;;;;;;;11.95;100.00;101766.94;5134744;27;19976;-37
2022/09/23 00:03:04;;;;;;;;;;;;;;;11.94;100.00;101768.91;5134800;27;20342;-39
2022/09/23 00:05:32;;;;;;;;;;;;;;;11.93;100.00;101771.97;5134173;27;19927;-39
2022/09/23 00:08:01;;;;;;;;;;;;;;;11.91;100.00;101766.69;5134735;27;20342;-42
2022/09/23 00:10:30;;;;;;;;;;;;;;;11.91;99.80;101766.69;5134797;27;19923;-35
2022/09/23 00:12:58;;;;;;;;;;;;;;;11.90;99.96;101755.78;5133856;27;19931;-35
2022/09/23 00:15:28;;;;;;;;;;;;;;;11.88;99.95;101755.22;5134504;27;20376;-36
2022/09/23 00:17:59;;;;;;;;;;;;;;;11.87;99.63;101748.78;5134817;27;20294;-39
2022/09/23 00:20:27;;;;;;;;;;;;;;;11.86;99.77;101744.31;5133664;27;19927;-41
2022/09/23 00:22:56;;;;;;;;;;;;;;;11.83;99.85;101744.88;5135623;27;19924;-38
2022/09/23 00:25:26;;;;;;;;;;;;;;;11.80;100.00;101745.44;5133510;27;19931;-41
2022/09/23 00:27:53;;;;;;;;;;;;;;;11.79;99.87;101745.75;5133831;27;19989;-41
2022/09/23 00:30:22;;;;;;;;;;;;;;;11.76;100.00;101746.28;5133162;27;19931;-39
2022/09/23 00:32:51;;;;;;;;;;;;;;;11.72;100.00;101746.88;5134155;27;19923;-38
2022/09/23 00:35:19;;;;;;;;;;;;;;;11.68;100.00;101739.31;5113075;28;19934;-30
2022/09/23 00:37:46;;;;;;;;;;;;;;;11.67;100.00;101737.66;5128248;27;19923;-37
2022/09/23 00:40:14;;;;;;;;;;;;;;;11.65;100.00;101735.13;5133277;27;19927;-38
2022/09/23 00:42:47;;;;;;;;;;;;;;;11.60;100.00;101735.16;5134536;27;20273;-36
2022/09/23 00:45:15;;;;;;;;;;;;;;;11.59;100.00;101738.25;5134383;27;19923;-34
2022/09/23 00:47:46;;;;;;;;;;;;;;;11.57;100.00;101734.91;5131827;27;20383;-37
2022/09/23 00:50:17;;;;;;;;;;;;;;;11.54;100.00;101730.72;5134166;27;20715;-38
2022/09/23 00:52:45;;;;;;;;;;;;;;;11.51;100.00;101727.66;5133649;27;19927;-31
2022/09/23 00:55:15;;;;;;;;;;;;;;;11.49;100.00;101721.50;5133347;27;19930;-40
2022/09/23 00:57:44;;;;;;;;;;;;;;;11.46;100.00;101733.25;5134051;27;20406;-39
2022/09/23 01:00:14;;;;;;;;;;;;;;;11.44;100.00;101727.09;5133906;27;19927;-42
2022/09/23 01:02:42;;;;;;;;;;;;;;;11.40;100.00;101726.81;5132808;27;20338;-38
2022/09/23 01:05:09;;;;;;;;;;;;;;;11.39;100.00;101728.78;5133593;27;19975;-36
2022/09/23 01:07:37;;;;;;;;;;;;;;;11.38;100.00;101727.13;5133665;27;19935;-38
2022/09/23 01:10:05;;;;;;;;;;;;;;;11.37;100.00;101728.25;5132579;27;19980;-41
2022/09/23 01:12:39;;;;;;;;;;;;;;;11.36;100.00;101737.75;5133654;27;20299;-40
2022/09/23 01:15:11;;;;;;;;;;;;;;;11.33;100.00;101727.13;5133499;27;19968;-37
2022/09/23 01:17:46;;;;;;;;;;;;;;;11.31;100.00;101729.38;5133267;27;19923;-37
2022/09/23 01:20:31;;;;;;;;;;;;;;;11.29;100.00;101727.97;5133419;27;19928;-38
2022/09/23 01:23:08;;;;;;;;;;;;;;;11.25;100.00;101716.53;5145948;27;20295;-39
2022/09/23 01:25:55;;;;;;;;;;;;;;;11.23;100.00;101717.94;5133372;27;19931;-38
2022/09/23 01:28:33;;;;;;;;;;;;;;;11.20;100.00;101715.69;5133358;27;19927;-38
2022/09/23 01:31:05;;;;;;;;;;;;;;;11.19;100.00;101711.25;5122228;27;20409;-37
2022/09/23 01:33:38;;;;;;;;;;;;;;;11.17;100.00;101711.53;5132620;27;20346;-39
2022/09/23 01:36:12;;;;;;;;;;;;;;;11.15;100.00;101705.38;5122195;27;19931;-38
2022/09/23 01:38:44;;;;;;;;;;;;;;;11.15;100.00;101705.38;5132151;27;19927;-42
2022/09/23 01:41:28;;;;;;;;;;;;;;;11.14;100.00;101706.50;5133013;27;20349;-39
2022/09/23 01:43:59;;;;;;;;;;;;;;;11.12;100.00;101703.16;5132276;27;20142;-36
2022/09/23 01:46:31;;;;;;;;;;;;;;;11.10;100.00;101697.00;5122329;27;20434;-40
2022/09/23 01:49:02;;;;;;;;;;;;;;;11.11;100.00;101695.91;5132711;27;19928;-40
2022/09/23 01:51:32;;;;;;;;;;;;;;;11.11;100.00;101697.84;5132298;27;19927;-36
2022/09/23 01:54:04;;;;;;;;;;;;;;;11.10;100.00;101688.63;5132723;27;19972;-41
2022/09/23 01:56:35;;;;;;;;;;;;;;;11.09;100.00;101695.34;5132797;27;20364;-40
2022/09/23 01:59:08;;;;;;;;;;;;;;;11.09;100.00;101686.13;5131878;27;19964;-42
2022/09/23 02:01:39;;;;;;;;;;;;;;;11.08;100.00;101685.28;5132612;27;19927;-38
2022/09/23 02:04:11;;;;;;;;;;;;;;;11.08;100.00;101678.84;5132976;27;19969;-41
2022/09/23 02:06:42;;;;;;;;;;;;;;;11.07;100.00;101678.03;5128458;27;19934;-37
2022/09/23 02:09:12;;;;;;;;;;;;;;;11.05;100.00;101674.66;5132484;27;20445;-37
2022/09/23 02:11:42;;;;;;;;;;;;;;;11.05;100.00;101674.66;5130627;27;19953;-41
2022/09/23 02:14:14;;;;;;;;;;;;;;;11.01;100.00;101666.00;5132832;27;20446;-39
2022/09/23 02:16:46;;;;;;;;;;;;;;;11.00;100.00;101677.47;5132444;27;19923;-40
2022/09/23 02:19:15;;;;;;;;;;;;;;;10.99;100.00;101670.22;5131865;27;19968;-39
2022/09/23 02:21:46;;;;;;;;;;;;;;;10.98;100.00;101668.56;5135842;27;19923;-40
2022/09/23 02:24:15;;;;;;;;;;;;;;;10.95;100.00;101667.16;5130634;28;19923;-44
2022/09/23 02:26:46;;;;;;;;;;;;;;;10.94;100.00;101665.50;5129289;28;19931;-37
2022/09/23 02:29:19;;;;;;;;;;;;;;;10.93;100.00;101668.56;5130844;28;19927;-36
2022/09/23 02:31:53;;;;;;;;;;;;;;;10.91;100.00;101656.84;5130237;28;20426;-40
2022/09/23 02:34:28;;;;;;;;;;;;;;;10.89;100.00;101657.13;5110108;28;20005;-36
2022/09/23 02:37:06;;;;;;;;;;;;;;;10.87;100.00;101653.75;5126690;28;19923;-40
2022/09/23 02:39:38;;;;;;;;;;;;;;;10.86;100.00;101646.50;5111265;28;19927;-35
2022/09/23 02:42:08;;;;;;;;;;;;;;;10.85;100.00;101649.56;5127550;28;20003;-32
2022/09/23 02:44:36;;;;;;;;;;;;;;;10.82;100.00;101648.19;5135991;27;20336;-41
2022/09/23 02:47:05;;;;;;;;;;;;;;;10.80;100.00;101644.81;5135293;27;20377;-36
2022/09/23 02:49:34;;;;;;;;;;;;;;;10.79;100.00;101645.13;5136323;27;19933;-43
2022/09/23 02:52:03;;;;;;;;;;;;;;;10.78;100.00;101635.09;5136255;27;19969;-36
2022/09/23 02:54:33;;;;;;;;;;;;;;;10.77;100.00;101634.25;5135418;27;19927;-34
2022/09/23 02:57:01;;;;;;;;;;;;;;;10.76;100.00;101631.75;5136143;27;20387;-37
2022/09/23 02:59:30;;;;;;;;;;;;;;;10.76;100.00;101637.31;5136331;27;19976;-39
2022/09/23 03:02:13;;;;;;;;;;;;;;;10.75;100.00;101630.91;5135249;27;19939;-40
2022/09/23 03:04:46;;;;;;;;;;;;;;;10.76;100.00;101632.56;5136332;27;20292;-41
2022/09/23 03:07:16;;;;;;;;;;;;;;;10.76;100.00;101629.78;5136144;27;19923;-40
2022/09/23 03:09:49;;;;;;;;;;;;;;;10.78;100.00;101632.28;5135245;27;19945;-38
2022/09/23 03:12:23;;;;;;;;;;;;;;;10.80;100.00;101621.66;5135558;27;19923;-39
2022/09/23 03:14:56;;;;;;;;;;;;;;;10.81;100.00;101623.34;5135617;27;19941;-39
2022/09/23 03:21:07;;;;;;;;;;;;;;;10.81;100.00;101613.00;5132675;27;20014;-38
2022/09/23 03:23:36;;;;;;;;;;;;;;;10.80;100.00;101604.91;5138403;27;19931;-36
2022/09/23 03:26:06;;;;;;;;;;;;;;;10.81;100.00;101604.63;5135639;27;19931;-42
2022/09/23 03:28:35;;;;;;;;;;;;;;;10.82;100.00;101603.50;5134799;27;19923;-37
2022/09/23 03:31:03;;;;;;;;;;;;;;;10.85;100.00;101604.91;5135588;27;20034;-40
2022/09/23 03:33:32;;;;;;;;;;;;;;;10.89;100.00;101597.63;5135300;27;19928;-40
2022/09/23 03:38:51;;;;;;;;;;;;;;;10.97;100.00;101611.03;5134104;27;19923;-37
2022/09/23 03:41:22;;;;;;;;;;;;;;;11.00;100.00;101610.44;5133715;27;19924;-37
2022/09/23 03:43:52;;;;;;;;;;;;;;;11.03;100.00;101598.69;5133480;27;19923;-40
2022/09/23 03:46:19;;;;;;;;;;;;;;;11.03;100.00;101602.34;5135521;27;19927;-42
2022/09/23 03:48:48;;;;;;;;;;;;;;;11.06;100.00;101595.34;5134116;27;19972;-44
2022/09/23 03:51:20;;;;;;;;;;;;;;;11.07;100.00;101593.38;5135448;27;20030;-35
2022/09/23 03:53:49;;;;;;;;;;;;;;;11.08;100.00;101589.47;5135231;27;19923;-42
2022/09/23 03:56:17;;;;;;;;;;;;;;;11.08;100.00;101595.06;5133549;27;19923;-38
2022/09/23 03:58:45;;;;;;;;;;;;;;;11.09;100.00;101588.34;5134757;27;20304;-35
2022/09/23 04:01:14;;;;;;;;;;;;;;;11.10;100.00;101588.06;5135025;27;19924;-40
2022/09/23 04:03:42;;;;;;;;;;;;;;;11.12;100.00;101590.59;5133889;27;19924;-43
2022/09/23 04:06:09;;;;;;;;;;;;;;;11.13;100.00;101583.88;5135086;27;19923;-44
2022/09/23 04:08:37;;;;;;;;;;;;;;;11.13;100.00;101586.69;5134816;27;19927;-36
2022/09/23 04:11:06;;;;;;;;;;;;;;;11.14;100.00;101583.59;5133868;27;19931;-40
2022/09/23 04:13:34;;;;;;;;;;;;;;;11.15;100.00;101585.28;5134642;27;19968;-39
2022/09/23 04:16:02;;;;;;;;;;;;;;;11.17;100.00;101574.66;5134634;27;20345;-35
2022/09/23 04:18:30;;;;;;;;;;;;;;;11.17;100.00;101577.44;5133727;27;20345;-39
2022/09/23 04:20:58;;;;;;;;;;;;;;;11.19;100.00;101571.56;5133549;27;19954;-39
2022/09/23 04:23:26;;;;;;;;;;;;;;;11.21;100.00;101578.53;5134511;27;20325;-36
2022/09/23 04:25:54;;;;;;;;;;;;;;;11.22;100.00;101576.56;5133606;27;19927;-36
2022/09/23 04:28:23;;;;;;;;;;;;;;;11.24;100.00;101572.38;5134352;27;19923;-36
2022/09/23 04:30:50;;;;;;;;;;;;;;;11.26;100.00;101577.66;5133718;27;19927;-38
2022/09/23 04:33:18;;;;;;;;;;;;;;;11.28;100.00;101570.69;5134657;27;20333;-36
2022/09/23 04:35:49;;;;;;;;;;;;;;;11.30;100.00;101571.22;5134265;27;19924;-39
2022/09/23 04:38:17;;;;;;;;;;;;;;;11.33;100.00;101569.81;5133589;27;19923;-39
2022/09/23 04:40:44;;;;;;;;;;;;;;;11.33;100.00;101561.44;5133837;27;19927;-34
2022/09/23 04:43:13;;;;;;;;;;;;;;;11.35;100.00;101562.81;5134100;27;19927;-39
2022/09/23 04:45:42;;;;;;;;;;;;;;;11.36;100.00;101564.50;5133306;27;19964;-38
2022/09/23 04:48:10;;;;;;;;;;;;;;;11.39;100.00;101561.09;5134114;27;20428;-42
2022/09/23 04:50:38;;;;;;;;;;;;;;;11.40;100.00;101559.16;5133898;27;19953;-37
2022/09/23 04:53:06;;;;;;;;;;;;;;;11.42;100.00;101564.44;5133145;27;19928;-38
2022/09/23 04:55:34;;;;;;;;;;;;;;;11.42;100.00;101558.88;5133643;27;20281;-43
2022/09/23 04:58:01;;;;;;;;;;;;;;;11.45;100.00;101561.09;5134015;27;19987;-39
2022/09/23 05:00:29;;;;;;;;;;;;;;;11.44;100.00;101554.66;5133279;27;19931;-40
2022/09/23 05:02:58;;;;;;;;;;;;;;;11.46;100.00;101562.75;5122593;27;19924;-39
2022/09/23 05:05:28;;;;;;;;;;;;;;;11.47;100.00;101568.06;5133434;27;19927;-31
2022/09/23 05:07:55;;;;;;;;;;;;;;;11.50;100.00;101561.06;5132632;27;19927;-35
2022/09/23 05:10:23;;;;;;;;;;;;;;;11.48;100.00;101558.56;5133473;27;20329;-39
2022/09/23 05:12:51;;;;;;;;;;;;;;;11.48;100.00;101555.75;5133306;27;19927;-40
2022/09/23 05:15:23;;;;;;;;;;;;;;;11.49;100.00;101559.38;5133802;27;19930;-32
2022/09/23 05:17:51;;;;;;;;;;;;;;;11.49;100.00;101564.97;5133103;27;20288;-42
2022/09/23 05:24:10;;;;;;;;;;;;;;;11.49;100.00;101568.63;5122446;27;19923;-43
2022/09/23 05:26:39;;;;;;;;;;;;;;;11.49;100.00;101559.38;5132947;27;19932;-39
2022/09/23 05:29:09;;;;;;;;;;;;;;;11.50;100.00;101566.66;5132825;27;19929;-39
2022/09/23 05:46:22;;;;;;;;;;;;;;;11.53;100.00;101571.69;5110965;28;19931;-40
2022/09/23 05:52:36;;;;;;;;;;;;;;;11.54;100.00;101573.34;5131121;27;20418;-36
2022/09/23 05:55:04;;;;;;;;;;;;;;;11.56;100.00;101557.13;5119136;27;19946;-40
2022/09/23 05:57:31;;;;;;;;;;;;;;;11.55;100.00;101564.69;5115639;27;19972;-39
2022/09/23 06:07:22;;;;;;;;;;;;;;;11.57;100.00;101569.97;5113436;27;19930;-35
2022/09/23 06:09:50;;;;;;;;;;;;;;;11.59;100.00;101576.13;5119857;27;19927;-39
2022/09/23 06:12:17;;;;;;;;;;;;;;;11.62;100.00;101583.91;5122253;27;19934;-39
2022/09/23 06:25:48;;;;;;;;;;;;;;;11.62;100.00;101564.34;5121203;28;19990;-35
2022/09/23 06:28:16;;;;;;;;;;;;;;;11.62;100.00;101573.56;5126034;27;19983;-41
2022/09/23 06:30:43;;;;;;;;;;;;;;;11.63;100.00;101566.84;5115192;28;19976;-38
2022/09/23 06:33:11;;;;;;;;;;;;;;;11.64;100.00;101568.50;5122708;27;19969;-41
2022/09/23 06:35:38;;;;;;;;;;;;;;;11.66;100.00;101565.44;5131547;28;19928;-35
2022/09/23 06:38:06;;;;;;;;;;;;;;;11.67;100.00;101576.31;5130627;28;19927;-36
2022/09/23 06:40:34;;;;;;;;;;;;;;;11.71;100.00;101573.78;5131328;28;19931;-41
2022/09/23 06:43:03;;;;;;;;;;;;;;;11.71;100.00;101577.44;5131187;28;19930;-41
2022/09/23 06:45:30;;;;;;;;;;;;;;;11.75;100.00;101577.69;5130012;28;19924;-40
2022/09/23 06:47:58;;;;;;;;;;;;;;;11.77;100.00;101577.44;5131153;28;20337;-37
2022/09/23 06:50:26;;;;;;;;;;;;;;;11.80;100.00;101586.06;5128918;27;19945;-35
2022/09/23 06:52:54;;;;;;;;;;;;;;;11.83;100.00;101574.28;5130647;27;19945;-35
2022/09/23 06:55:24;;;;;;;;;;;;;;;11.85;100.00;101565.63;5130963;28;20014;-38
2022/09/23 06:57:51;;;;;;;;;;;;;;;11.87;100.00;101568.97;5130946;28;20371;-38
2022/09/23 07:00:20;;;;;;;;;;;;;;;11.88;100.00;101571.47;5130255;28;19923;-41
2022/09/23 07:02:48;;;;;;;;;;;;;;;11.90;100.00;101572.00;5131389;28;19927;-36
2022/09/23 07:05:16;;;;;;;;;;;;;;;11.93;100.00;101577.03;5130764;27;19923;-41
2022/09/23 07:07:44;;;;;;;;;;;;;;;11.97;100.00;101575.34;5130571;28;19980;-43
2022/09/23 07:10:12;;;;;;;;;;;;;;;12.01;100.00;101575.56;5130580;28;19927;-35
2022/09/23 07:12:39;;;;;;;;;;;;;;;12.03;100.00;101557.34;5129940;27;19970;-40
2022/09/23 07:15:08;;;;;;;;;;;;;;;12.07;100.00;101563.22;5130470;28;20407;-39
2022/09/23 07:17:37;;;;;;;;;;;;;;;12.09;100.00;101569.34;5131024;28;19955;-39
2022/09/23 07:20:05;;;;;;;;;;;;;;;12.13;100.00;101572.41;5129881;28;19962;-36
2022/09/23 07:22:32;;;;;;;;;;;;;;;12.17;100.00;101577.13;5130549;28;19927;-34
2022/09/23 07:25:00;;;;;;;;;;;;;;;12.21;100.00;101574.56;5130557;28;19965;-38
2022/09/23 07:27:28;;;;;;;;;;;;;;;12.25;100.00;101570.06;5129893;28;19924;-39
2022/09/23 07:29:56;;;;;;;;;;;;;;;12.28;100.00;101575.91;5131612;27;19953;-38
2022/09/23 07:32:24;;;;;;;;;;;;;;;12.34;100.00;101571.09;5134312;27;19923;-37
2022/09/23 07:34:53;;;;;;;;;;;;;;;12.39;100.00;101571.03;5134062;27;19928;-42
2022/09/23 07:37:20;;;;;;;;;;;;;;;12.43;100.00;101572.13;5134156;27;19947;-41
2022/09/23 07:39:48;;;;;;;;;;;;;;;12.47;100.00;101572.38;5134488;27;19928;-39
2022/09/23 07:42:16;;;;;;;;;;;;;;;12.50;100.00;101578.22;5131788;27;19982;-41
2022/09/23 07:44:45;;;;;;;;;;;;;;;12.55;100.00;101569.78;5134500;27;19992;-43
2022/09/23 07:47:13;;;;;;;;;;;;;;;12.57;100.00;101578.72;5133812;27;19928;-39
2022/09/23 07:49:41;;;;;;;;;;;;;;;12.59;100.00;101579.25;5131624;27;19927;-38
2022/09/23 07:52:12;;;;;;;;;;;;;;;12.63;100.00;101574.72;5134061;27;19927;-34
2022/09/23 07:54:40;;;;;;;;;;;;;;;12.66;100.00;101582.53;5133859;27;19927;-40
2022/09/23 07:57:07;;;;;;;;;;;;;;;12.67;100.00;101573.00;5132832;27;19923;-38
2022/09/23 07:59:35;;;;;;;;;;;;;;;12.72;100.00;101581.38;5133975;27;19932;-35
2022/09/23 08:02:03;;;;;;;;;;;;;;;12.74;100.00;101583.88;5133043;27;19966;-37
2022/09/23 08:04:31;;;;;;;;;;;;;;;12.75;100.00;101580.78;5133525;27;20388;-37
2022/09/23 08:07:00;;;;;;;;;;;;;;;12.76;100.00;101585.25;5134407;27;19969;-38
2022/09/23 08:09:30;;;;;;;;;;;;;;;12.76;100.00;101585.25;5134242;27;19923;-44
2022/09/23 08:11:58;;;;;;;;;;;;;;;12.78;100.00;101573.75;5134349;27;20423;-41
2022/09/23 08:14:26;;;;;;;;;;;;;;;12.80;100.00;101579.03;5134608;27;19924;-37
2022/09/23 08:16:54;;;;;;;;;;;;;;;12.82;100.00;101579.56;5133659;27;19927;-35
2022/09/23 08:19:21;;;;;;;;;;;;;;;12.85;100.00;101579.81;5134651;27;19923;-34
2022/09/23 08:21:50;;;;;;;;;;;;;;;12.89;100.00;101580.06;5134576;27;19927;-37
2022/09/23 08:24:20;;;;;;;;;;;;;;;12.94;100.00;101578.03;5133566;27;19932;-39
2022/09/23 08:26:52;;;;;;;;;;;;;;;13.00;100.00;101584.41;5134357;27;19952;-43
2022/09/23 08:29:20;;;;;;;;;;;;;;;13.05;100.00;101578.75;5134199;27;19976;-40
2022/09/23 08:31:49;;;;;;;;;;;;;;;13.12;100.00;101584.84;5133859;27;19953;-37
2022/09/23 08:34:17;;;;;;;;;;;;;;;13.17;100.00;101587.63;5133881;27;19962;-40
2022/09/23 08:36:45;;;;;;;;;;;;;;;13.24;100.00;101582.47;5134720;27;19972;-40
2022/09/23 08:39:14;;;;;;;;;;;;;;;13.30;100.00;101586.88;5133544;27;19923;-38
2022/09/23 08:41:45;;;;;;;;;;;;;;;13.37;100.00;101580.91;5133999;27;19928;-38
2022/09/23 08:44:18;;;;;;;;;;;;;;;13.44;100.00;101579.41;5132491;27;19923;-41
2022/09/23 08:46:49;;;;;;;;;;;;;;;13.53;100.00;101585.19;5112062;28;19928;-37
2022/09/23 08:49:22;;;;;;;;;;;;;;;13.62;100.00;101588.13;5128749;27;19927;-39
2022/09/23 08:51:53;;;;;;;;;;;;;;;13.71;100.00;101581.56;5133379;27;19968;-42
2022/09/23 08:54:20;;;;;;;;;;;;;;;13.79;100.00;101577.22;5133477;27;19978;-42
2022/09/23 08:56:51;;;;;;;;;;;;;;;13.88;100.00;101583.00;5133920;27;20051;-40
2022/09/23 08:59:24;;;;;;;;;;;;;;;13.96;100.00;101583.16;5133037;27;20012;-38
2022/09/23 09:01:52;;;;;;;;;;;;;;;14.03;100.00;101580.78;5134098;27;19931;-41
2022/09/23 09:04:22;;;;;;;;;;;;;;;14.08;100.00;101594.72;5133302;27;20018;-38
2022/09/23 09:06:52;;;;;;;;;;;;;;;14.13;100.00;101580.63;5133158;27;20044;-38
2022/09/23 09:09:26;;;;;;;;;;;;;;;14.17;100.00;101575.25;5133351;27;20407;-40
2022/09/23 09:11:57;;;;;;;;;;;;;;;14.20;100.00;101577.41;5133476;27;19928;-36
2022/09/23 09:14:36;;;;;;;;;;;;;;;14.26;100.00;101564.97;5132825;27;19972;-36
2022/09/23 09:17:06;;;;;;;;;;;;;;;14.32;100.00;101565.72;5133649;27;20325;-37
2022/09/23 09:19:52;;;;;;;;;;;;;;;14.37;100.00;101574.88;5132514;27;20399;-43
2022/09/23 09:22:24;;;;;;;;;;;;;;;14.47;100.00;101574.72;5144632;27;19927;-40
2022/09/23 09:24:55;;;;;;;;;;;;;;;14.54;100.00;101568.72;5143331;27;19992;-43
2022/09/23 09:27:23;;;;;;;;;;;;;;;14.63;100.00;101580.06;5132661;27;19924;-42
2022/09/23 09:29:54;;;;;;;;;;;;;;;14.71;100.00;101571.75;5133274;27;19928;-41
2022/09/23 09:32:29;;;;;;;;;;;;;;;14.77;100.00;101578.13;5132980;27;19966;-36
2022/09/23 09:34:59;;;;;;;;;;;;;;;14.79;100.00;101582.28;5132649;27;19931;-43
2022/09/23 09:37:31;;;;;;;;;;;;;;;14.81;100.00;101573.53;5133090;27;19952;-39
2022/09/23 09:39:59;;;;;;;;;;;;;;;14.84;100.00;101572.91;5132661;27;19928;-37
2022/09/23 09:42:30;;;;;;;;;;;;;;;14.84;100.00;101575.72;5132377;27;19923;-31
2022/09/23 09:45:01;;;;;;;;;;;;;;;14.86;100.00;101572.59;5132378;27;20296;-37
2022/09/23 09:47:35;;;;;;;;;;;;;;;14.90;100.00;101573.66;5123733;27;19923;-36
2022/09/23 09:50:05;;;;;;;;;;;;;;;14.94;100.00;101572.72;5131697;27;19959;-34
2022/09/23 09:52:32;;;;;;;;;;;;;;;14.97;100.00;101574.94;5131022;27;19988;-38
2022/09/23 09:55:16;;;;;;;;;;;;;;;14.98;100.00;101579.41;5130744;27;19931;-37
2022/09/23 09:57:44;;;;;;;;;;;;;;;15.01;100.00;101570.31;5131906;27;19928;-36
2022/09/23 10:00:35;;;;;;;;;;;;;;;15.05;100.00;101568.56;5130208;27;19923;-38
2022/09/23 10:03:03;;;;;;;;;;;;;;;15.05;100.00;101568.56;5121035;27;20321;-36
2022/09/23 10:05:33;;;;;;;;;;;;;;;15.02;100.00;101563.56;5129513;27;20449;-35
2022/09/23 10:08:20;;;;;;;;;;;;;;;15.01;100.00;101563.88;5131030;27;19931;-33
2022/09/23 10:10:53;;;;;;;;;;;;;;;15.02;100.00;101562.72;5110935;27;19984;-37
2022/09/23 10:13:22;;;;;;;;;;;;;;;15.04;100.00;101558.47;5110401;27;19972;-42
2022/09/23 10:15:54;;;;;;;;;;;;;;;15.10;100.00;101562.84;5128204;27;20470;-35
2022/09/23 10:18:25;;;;;;;;;;;;;;;15.14;100.00;101557.44;5119875;27;19939;-38
2022/09/23 10:21:00;;;;;;;;;;;;;;;15.18;100.00;101561.28;5129815;27;19927;-40
2022/09/23 10:23:32;;;;;;;;;;;;;;;15.23;100.00;101555.53;5120350;27;19927;-41
2022/09/23 10:26:01;;;;;;;;;;;;;;;15.24;100.00;101556.38;5112254;27;19924;-36
2022/09/23 10:28:46;;;;;;;;;;;;;;;15.26;100.00;101559.69;5121865;28;20326;-41
2022/09/23 10:31:17;;;;;;;;;;;;;;;15.33;100.00;101555.34;5110695;28;20353;-40
2022/09/23 10:33:48;;;;;;;;;;;;;;;15.38;100.00;101560.84;5122028;28;20452;-41
2022/09/23 10:36:16;;;;;;;;;;;;;;;15.44;100.00;101555.94;5111782;28;19928;-44
2022/09/23 10:38:44;;;;;;;;;;;;;;;15.46;100.00;101548.84;5121412;28;19928;-34
2022/09/23 10:47:00;;;;;;;;;;;;;;;15.52;100.00;101550.41;5111875;28;20365;-37
2022/09/23 10:49:47;;;;;;;;;;;;;;;15.57;100.00;101554.28;5101334;28;19924;-35
2022/09/23 10:52:34;;;;;;;;;;;;;;;15.62;100.00;101548.53;5112719;28;20278;-39
2022/09/23 10:55:07;;;;;;;;;;;;;;;15.62;100.00;101552.16;5119410;28;20354;-33
2022/09/23 10:57:43;;;;;;;;;;;;;;;15.63;100.00;101541.75;5114050;28;19965;-41
2022/09/23 11:00:21;;;;;;;;;;;;;;;15.63;100.00;101538.94;5119479;28;20342;-45
2022/09/23 11:03:09;;;;;;;;;;;;;;;15.65;100.00;101540.28;5114902;28;20326;-39
2022/09/23 11:05:41;;;;;;;;;;;;;;;15.65;100.00;101539.44;5120171;27;19928;-38
2022/09/23 11:08:19;;;;;;;;;;;;;;;15.67;100.00;101546.44;5120176;27;19931;-39
2022/09/23 11:10:58;;;;;;;;;;;;;;;15.67;100.00;101537.16;5102693;28;19928;-38
2022/09/23 11:13:42;;;;;;;;;;;;;;;15.67;100.00;101545.59;5120663;27;19927;-43
2022/09/23 11:16:16;;;;;;;;;;;;;;;15.67;100.00;101535.19;5119613;27;19931;-36
2022/09/23 11:18:51;;;;;;;;;;;;;;;15.69;100.00;101532.06;5120975;27;19934;-35
2022/09/23 11:21:26;;;;;;;;;;;;;;;15.66;100.00;101533.50;5119489;27;19924;-38
2022/09/23 11:24:01;;;;;;;;;;;;;;;15.68;100.00;101534.03;5121872;27;19972;-40
2022/09/23 11:26:36;;;;;;;;;;;;;;;15.73;100.00;101539.53;5118808;27;19927;-42
2022/09/23 11:29:12;;;;;;;;;;;;;;;15.77;100.00;101532.13;5121633;27;19927;-41
2022/09/23 11:31:46;;;;;;;;;;;;;;;15.80;100.00;101530.66;5119364;27;20023;-39
2022/09/23 11:34:24;;;;;;;;;;;;;;;15.82;100.00;101529.19;5121107;27;19976;-40
2022/09/23 11:36:56;;;;;;;;;;;;;;;15.88;100.00;101524.28;5118919;27;19928;-42
2022/09/23 11:39:27;;;;;;;;;;;;;;;15.93;100.00;101517.69;5121026;27;19931;-37
2022/09/23 11:41:58;;;;;;;;;;;;;;;15.95;100.00;101521.84;5119545;27;19928;-41
2022/09/23 11:44:28;;;;;;;;;;;;;;;15.98;100.00;101521.22;5119917;27;20392;-37
2022/09/23 11:47:00;;;;;;;;;;;;;;;16.05;100.00;101515.13;5120320;27;20393;-34
2022/09/23 11:49:30;;;;;;;;;;;;;;;16.09;100.00;101513.34;5119074;27;19924;-40
2022/09/23 11:52:04;;;;;;;;;;;;;;;16.13;100.00;101509.56;5121475;27;20362;-43
2022/09/23 11:54:35;;;;;;;;;;;;;;;16.24;100.00;101506.47;5116414;27;19932;-41
2022/09/23 11:57:05;;;;;;;;;;;;;;;16.33;100.00;101504.56;5123338;27;19924;-39
2022/09/23 11:59:37;;;;;;;;;;;;;;;16.44;100.00;101505.94;5116661;27;19980;-40
2022/09/23 12:02:14;;;;;;;;;;;;;;;16.57;100.00;101502.19;5123348;27;19957;-41
2022/09/23 12:04:55;;;;;;;;;;;;;;;16.66;100.00;101503.09;5116270;27;20388;-42
2022/09/23 12:07:29;;;;;;;;;;;;;;;16.71;100.00;101497.31;5122778;27;19967;-41
2022/09/23 12:09:59;;;;;;;;;;;;;;;16.73;100.00;101497.81;5116117;27;20412;-36
2022/09/23 12:12:29;;;;;;;;;;;;;;;16.76;100.00;101494.38;5132724;27;19934;-37
2022/09/23 12:15:00;;;;;;;;;;;;;;;16.78;100.00;101494.88;5132697;27;20006;-41
2022/09/23 12:17:39;;;;;;;;;;;;;;;16.78;100.00;101494.88;5112694;27;19928;-44
2022/09/23 12:20:23;;;;;;;;;;;;;;;16.78;100.00;101492.06;5133402;27;20403;-41
2022/09/23 12:22:57;;;;;;;;;;;;;;;16.79;100.00;101493.69;5119865;27;19980;-45
2022/09/23 12:25:37;;;;;;;;;;;;;;;16.74;100.00;101493.03;5132126;27;20269;-41
2022/09/23 12:28:10;;;;;;;;;;;;;;;16.72;100.00;101487.72;5125766;27;19927;-40
2022/09/23 12:30:38;;;;;;;;;;;;;;;16.71;100.00;101493.66;5131302;27;19928;-40
2022/09/23 12:33:11;;;;;;;;;;;;;;;16.72;100.00;101486.88;5124734;27;19927;-37
2022/09/23 12:35:41;;;;;;;;;;;;;;;16.68;100.00;101491.50;5132489;27;19931;-34
2022/09/23 12:38:12;;;;;;;;;;;;;;;16.62;100.00;101485.13;5112242;27;19957;-43
2022/09/23 12:40:42;;;;;;;;;;;;;;;16.53;100.00;101489.91;5132940;27;19928;-41
2022/09/23 12:43:16;;;;;;;;;;;;;;;16.48;100.00;101492.88;5122075;27;20010;-34
2022/09/23 12:45:44;;;;;;;;;;;;;;;16.41;100.00;101486.84;5132844;27;19924;-33
2022/09/23 12:48:42;;;;;;;;;;;;;;;16.34;100.00;101484.50;5122488;27;19996;-34
2022/09/23 12:51:15;;;;;;;;;;;;;;;16.26;100.00;101478.81;5132140;27;19923;-35
2022/09/23 12:53:58;;;;;;;;;;;;;;;16.20;100.00;101478.94;5113603;27;19946;-36
2022/09/23 12:56:27;;;;;;;;;;;;;;;16.17;100.00;101482.44;5131439;27;19923;-34
2022/09/23 12:59:15;;;;;;;;;;;;;;;16.07;100.00;101468.59;5123320;27;19964;-33
2022/09/23 13:01:43;;;;;;;;;;;;;;;16.01;100.00;101486.78;5125591;27;19923;-33
2022/09/23 13:07:15;;;;;;;;;;;;;;;15.97;100.00;101473.69;5127970;27;19969;-36
2022/09/23 13:09:45;;;;;;;;;;;;;;;15.95;100.00;101468.38;5127283;27;20373;-36
2022/09/23 13:12:16;;;;;;;;;;;;;;;15.93;100.00;101469.84;5128691;27;19969;-38
2022/09/23 13:14:45;;;;;;;;;;;;;;;15.88;100.00;101467.16;5126309;27;19923;-34
2022/09/23 13:17:23;;;;;;;;;;;;;;;15.81;100.00;101464.75;5129996;27;19956;-38
2022/09/23 13:19:58;;;;;;;;;;;;;;;15.77;100.00;101473.03;5125201;27;19931;-31
2022/09/23 13:22:44;;;;;;;;;;;;;;;15.77;100.00;101473.03;5124927;27;19950;-35
2022/09/23 13:25:19;;;;;;;;;;;;;;;15.78;100.00;101465.44;5119412;27;19931;-34
2022/09/23 13:27:48;;;;;;;;;;;;;;;15.76;100.00;101462.09;5116394;27;19924;-34
2022/09/23 13:30:19;;;;;;;;;;;;;;;15.72;100.00;101469.50;5120456;27;20264;-34
2022/09/23 13:32:59;;;;;;;;;;;;;;;15.63;100.00;101460.16;5116440;27;19957;-34
2022/09/23 13:35:32;;;;;;;;;;;;;;;15.58;100.00;101454.69;5120611;27;19945;-34
2022/09/23 13:38:09;;;;;;;;;;;;;;;15.54;100.00;101453.63;5116122;27;19968;-34
2022/09/23 13:40:39;;;;;;;;;;;;;;;15.46;100.00;101452.38;5119630;27;20430;-34
2022/09/23 13:43:12;;;;;;;;;;;;;;;15.45;100.00;101459.16;5115883;27;19924;-35